Beaukiss, Texas
Current Conditions -  °F | °C
As of 10:35 PM on Thursday 18 Dec 2014 (Local Time) from KEDC Reporting Station
Haze Haze  
Wind Chill: 50°   Ceiling: 400
Heat Index: 50°   Visibility: 2mi
Dew Point: 50°   Wind: 15mph
Humidity: 100%   Direction: 10°N
Pressure: 30.1"   Gusts: 21mph
Location:  30.2988°N, 97.3874°W
Report Text: KEDC 190435Z AUTO 01013G18KT 2SM BR OVC004 10/10 A3010 RMK AO2
Loading
Personal Weather Stations






























Interactive Weather Map New forecast layout! Learn more

10-Day Weather Forecast

Advertisements
Track Severe Weather on mobile